Time;durP1;ratioP1;P1;durP2;ratioP2;P2;SDS_P1;SDS_P2;PMS_P1;PMS_P2;Temp;Humidity;BMP_temperature;BMP_pressure;BME280_temperature;BME280_humidity;BME280_pressure;Samples;Min_cycle;Max_cycle;Signal;HPM_P1;HPM_P2
2022/04/03 00:00:21;;;;;;;1.67;1.00;;;3.80;60.50;;;;;;4983868;28;20480;-80
2022/04/03 00:02:47;;;;;;;1.50;0.93;;;3.80;60.50;;;;;;4978194;28;20026;-80
2022/04/03 00:05:13;;;;;;;1.52;1.00;;;3.80;60.50;;;;;;4993483;28;20540;-80
2022/04/03 00:07:38;;;;;;;1.73;1.00;;;3.70;60.60;;;;;;5009403;28;20386;-80
2022/04/03 00:10:05;;;;;;;2.38;0.98;;;3.70;60.80;;;;;;5000451;28;20131;-80
2022/04/03 00:12:30;;;;;;;2.03;1.05;;;3.70;60.90;;;;;;5006978;28;20060;-80
2022/04/03 00:14:56;;;;;;;2.33;1.10;;;3.60;60.80;;;;;;4989076;28;20034;-80
2022/04/03 00:17:22;;;;;;;1.40;0.90;;;3.60;60.90;;;;;;4981879;28;20495;-80
2022/04/03 00:19:47;;;;;;;1.30;0.90;;;3.50;60.90;;;;;;5011454;28;20021;-80
2022/04/03 00:22:13;;;;;;;1.50;1.00;;;3.50;61.00;;;;;;4994194;28;20026;-80
2022/04/03 00:24:39;;;;;;;1.63;0.90;;;3.50;61.10;;;;;;5005807;28;20401;-80
2022/04/03 00:27:05;;;;;;;1.75;1.00;;;3.50;61.10;;;;;;4991811;28;20049;-80
2022/04/03 00:29:31;;;;;;;1.50;1.00;;;3.40;61.10;;;;;;4980785;28;20335;-80
2022/04/03 00:31:57;;;;;;;1.88;0.90;;;3.40;61.20;;;;;;5001943;28;20494;-80
2022/04/03 00:34:23;;;;;;;1.20;0.82;;;3.30;61.20;;;;;;4962452;28;20418;-80
2022/04/03 00:36:49;;;;;;;1.27;0.90;;;3.30;61.30;;;;;;4985295;28;20030;-80
2022/04/03 00:39:15;;;;;;;1.63;0.90;;;3.30;61.40;;;;;;4997334;28;20025;-80
2022/04/03 00:41:41;;;;;;;1.52;1.00;;;3.20;61.30;;;;;;4987734;28;20076;-80
2022/04/03 00:44:07;;;;;;;1.48;1.02;;;3.20;61.30;;;;;;4999358;28;20037;-80
2022/04/03 00:46:34;;;;;;;1.50;1.03;;;3.20;61.40;;;;;;4979759;28;20289;-80
2022/04/03 00:49:01;;;;;;;1.27;1.00;;;3.10;61.40;;;;;;5008500;28;20635;-80
2022/04/03 00:51:27;;;;;;;2.00;1.10;;;3.10;61.60;;;;;;4989456;28;20022;-80
2022/04/03 00:53:53;;;;;;;3.28;1.00;;;3.10;61.50;;;;;;5000468;28;20064;-80
2022/04/03 00:56:19;;;;;;;2.47;1.03;;;3.00;61.50;;;;;;4988374;28;20081;-81
2022/04/03 00:58:45;;;;;;;1.13;0.85;;;3.00;61.60;;;;;;5005427;28;20029;-80
2022/04/03 01:01:13;;;;;;;2.53;1.10;;;3.00;61.60;;;;;;4992482;28;20072;-83
2022/04/03 01:03:38;;;;;;;1.52;0.95;;;3.00;61.80;;;;;;4977042;28;20115;-83
2022/04/03 01:06:04;;;;;;;3.23;1.17;;;2.90;61.70;;;;;;4960653;28;20472;-83
2022/04/03 01:08:30;;;;;;;3.35;1.00;;;2.90;61.90;;;;;;4983050;28;20227;-83
2022/04/03 01:10:55;;;;;;;1.50;0.90;;;2.80;61.80;;;;;;4997948;28;20034;-83
2022/04/03 01:13:21;;;;;;;1.83;0.95;;;2.80;61.90;;;;;;4980860;28;20216;-83
2022/04/03 01:15:55;;;;;;;2.30;1.00;;;2.80;62.00;;;;;;5003330;28;20021;-83
2022/04/03 01:18:23;;;;;;;1.40;0.90;;;2.80;62.20;;;;;;4978684;28;20026;-83
2022/04/03 01:20:49;;;;;;;2.05;1.10;;;2.70;62.10;;;;;;4965483;28;20030;-83
2022/04/03 01:23:15;;;;;;;1.52;0.88;;;2.70;62.20;;;;;;4977037;28;20090;-83
2022/04/03 01:25:41;;;;;;;2.58;1.05;;;2.60;62.10;;;;;;4982240;28;20072;-83
2022/04/03 01:28:08;;;;;;;1.53;1.00;;;2.60;62.20;;;;;;4992089;28;20495;-84
2022/04/03 01:30:34;;;;;;;1.33;0.95;;;2.60;62.30;;;;;;5008313;28;20694;-83
2022/04/03 01:33:00;;;;;;;2.33;1.00;;;2.60;62.30;;;;;;4999115;28;20124;-83
2022/04/03 01:35:25;;;;;;;2.50;1.07;;;2.50;62.30;;;;;;4979321;28;20314;-83
2022/04/03 01:37:51;;;;;;;2.72;1.15;;;2.50;62.30;;;;;;4969154;28;20022;-83
2022/04/03 01:40:18;;;;;;;1.80;1.00;;;2.50;62.50;;;;;;4985022;28;20307;-83
2022/04/03 01:42:43;;;;;;;1.55;1.10;;;2.40;62.50;;;;;;4977525;28;20545;-83
2022/04/03 01:45:10;;;;;;;1.87;1.00;;;2.40;62.50;;;;;;4966844;28;20101;-83
2022/04/03 01:47:36;;;;;;;1.73;0.95;;;2.30;62.50;;;;;;4994223;28;20121;-83
2022/04/03 01:50:03;;;;;;;1.73;0.90;;;2.30;62.60;;;;;;4996698;28;20179;-83
2022/04/03 01:52:29;;;;;;;1.60;1.00;;;2.30;62.70;;;;;;4955130;28;20724;-83
2022/04/03 01:54:55;;;;;;;1.73;1.00;;;2.20;62.70;;;;;;4996468;28;20128;-82
2022/04/03 01:57:20;;;;;;;2.40;1.00;;;2.20;62.70;;;;;;5004273;28;20018;-83
2022/04/03 01:59:46;;;;;;;1.93;1.20;;;2.20;62.90;;;;;;4989503;28;20080;-83
2022/04/03 02:02:12;;;;;;;1.85;0.90;;;2.20;63.00;;;;;;4985772;28;20026;-82
2022/04/03 02:04:38;;;;;;;1.90;1.00;;;2.10;63.10;;;;;;4977841;28;20033;-82
2022/04/03 02:07:04;;;;;;;1.17;0.82;;;2.10;63.10;;;;;;4986600;28;20466;-83
2022/04/03 02:09:31;;;;;;;1.67;1.10;;;2.10;63.10;;;;;;4964107;28;20034;-82
2022/04/03 02:11:57;;;;;;;2.08;1.10;;;2.00;63.20;;;;;;4997904;28;20033;-82
2022/04/03 02:14:26;;;;;;;2.15;1.02;;;2.00;63.30;;;;;;4983683;28;20145;-82
2022/04/03 02:16:57;;;;;;;1.50;1.00;;;1.90;63.30;;;;;;4985836;28;20046;-82
2022/04/03 02:19:23;;;;;;;1.13;0.90;;;1.90;63.40;;;;;;4983080;28;20187;-81
2022/04/03 02:21:48;;;;;;;1.77;1.00;;;1.90;63.30;;;;;;4993249;28;20465;-82
2022/04/03 02:24:14;;;;;;;1.58;0.90;;;1.90;63.40;;;;;;4949818;28;20053;-82
2022/04/03 02:26:41;;;;;;;1.65;1.00;;;1.80;63.30;;;;;;5000394;28;20045;-82
2022/04/03 02:29:06;;;;;;;2.40;1.02;;;1.80;63.40;;;;;;5000360;28;20068;-81
2022/04/03 02:31:33;;;;;;;1.97;0.93;;;1.70;63.40;;;;;;4998104;28;20108;-81
2022/04/03 02:33:58;;;;;;;2.25;1.10;;;1.70;63.60;;;;;;4972656;28;20046;-82
2022/04/03 02:36:24;;;;;;;1.20;0.93;;;1.70;63.60;;;;;;5007300;28;20040;-82
2022/04/03 02:38:50;;;;;;;1.30;1.00;;;1.70;63.70;;;;;;4992664;28;20100;-81
2022/04/03 02:41:16;;;;;;;1.40;0.93;;;1.60;63.70;;;;;;4961137;28;20025;-82
2022/04/03 02:43:41;;;;;;;2.08;1.10;;;1.50;63.70;;;;;;4996489;28;20101;-82
2022/04/03 02:46:07;;;;;;;1.10;0.87;;;1.50;63.80;;;;;;4972000;28;20026;-82
2022/04/03 02:48:33;;;;;;;1.70;1.00;;;1.50;64.00;;;;;;4990524;28;20099;-82
2022/04/03 02:50:59;;;;;;;2.37;0.90;;;1.50;64.10;;;;;;4970174;28;20040;-82
2022/04/03 02:53:25;;;;;;;1.55;0.90;;;1.40;64.00;;;;;;4963444;28;20029;-81
2022/04/03 02:55:51;;;;;;;1.98;1.00;;;1.40;64.10;;;;;;5003672;28;20080;-81
2022/04/03 02:58:17;;;;;;;2.17;0.87;;;1.40;64.10;;;;;;4986585;28;20227;-82
2022/04/03 03:00:43;;;;;;;2.33;0.90;;;1.40;64.30;;;;;;5011181;28;20029;-81
2022/04/03 03:03:09;;;;;;;1.52;0.90;;;1.30;64.20;;;;;;4983672;28;20101;-82
2022/04/03 03:05:35;;;;;;;2.20;1.10;;;1.30;64.10;;;;;;4985595;28;20763;-81
2022/04/03 03:08:01;;;;;;;2.55;1.00;;;1.30;64.20;;;;;;4977564;28;20026;-82
2022/04/03 03:10:27;;;;;;;2.15;1.05;;;1.20;64.30;;;;;;4973857;28;20767;-82
2022/04/03 03:12:53;;;;;;;1.30;0.90;;;1.20;64.30;;;;;;4978056;28;20258;-81
2022/04/03 03:15:19;;;;;;;3.10;1.10;;;1.20;64.50;;;;;;4991739;28;20429;-81
2022/04/03 03:17:46;;;;;;;2.13;1.20;;;1.20;64.50;;;;;;4970153;28;20076;-82
2022/04/03 03:20:12;;;;;;;1.52;0.90;;;1.10;64.50;;;;;;4983219;28;20072;-81
2022/04/03 03:22:38;;;;;;;1.45;0.90;;;1.10;64.70;;;;;;5006487;28;20025;-81
2022/04/03 03:25:05;;;;;;;2.23;1.00;;;1.10;64.60;;;;;;4968518;28;20368;-81
2022/04/03 03:27:31;;;;;;;1.80;0.98;;;1.10;64.70;;;;;;4960302;28;20257;-81
2022/04/03 03:29:57;;;;;;;1.67;1.00;;;1.00;64.60;;;;;;5006166;28;20450;-82
2022/04/03 03:32:24;;;;;;;1.80;1.00;;;1.00;64.70;;;;;;5009390;28;20232;-82
2022/04/03 03:34:54;;;;;;;1.98;0.90;;;1.00;64.80;;;;;;5004624;28;20045;-81
2022/04/03 03:37:20;;;;;;;1.60;1.10;;;1.00;64.80;;;;;;4985111;28;20038;-81
2022/04/03 03:39:46;;;;;;;1.40;1.00;;;1.00;64.90;;;;;;4979318;28;20022;-82
2022/04/03 03:42:12;;;;;;;1.77;1.10;;;0.90;64.80;;;;;;4973793;28;20125;-81
2022/04/03 03:44:39;;;;;;;1.60;1.00;;;0.90;64.90;;;;;;4983577;28;20386;-81
2022/04/03 03:47:05;;;;;;;2.38;1.08;;;0.90;64.90;;;;;;5004513;28;20084;-81
2022/04/03 03:49:31;;;;;;;1.70;1.13;;;0.90;65.00;;;;;;4999267;28;20030;-81
2022/04/03 03:51:57;;;;;;;1.27;0.82;;;0.90;65.00;;;;;;4990561;28;20402;-81
2022/04/03 03:54:22;;;;;;;1.98;1.10;;;0.80;65.00;;;;;;4996016;28;20386;-81
2022/04/03 03:56:48;;;;;;;1.57;1.07;;;0.80;65.00;;;;;;5015972;28;20022;-81
2022/04/03 03:59:14;;;;;;;1.23;0.93;;;0.80;65.10;;;;;;4973265;28;20037;-81
2022/04/03 04:01:41;;;;;;;3.08;1.20;;;0.80;65.10;;;;;;4994800;28;20425;-81
2022/04/03 04:04:07;;;;;;;2.03;1.10;;;0.80;65.10;;;;;;4980899;28;20053;-80
2022/04/03 04:06:33;;;;;;;1.93;0.90;;;0.70;65.20;;;;;;4992383;28;20275;-81
2022/04/03 04:08:59;;;;;;;2.28;1.10;;;0.70;65.20;;;;;;4991725;28;20038;-81
2022/04/03 04:11:24;;;;;;;1.60;1.10;;;0.70;65.20;;;;;;5011335;28;20301;-81
2022/04/03 04:13:50;;;;;;;2.10;1.10;;;0.70;65.40;;;;;;4984226;28;20045;-81
2022/04/03 04:16:16;;;;;;;1.83;1.10;;;0.70;65.40;;;;;;5003243;28;20372;-81
2022/04/03 04:18:42;;;;;;;1.93;1.13;;;0.70;65.40;;;;;;5021106;28;20281;-81
2022/04/03 04:21:10;;;;;;;2.40;1.20;;;0.60;65.30;;;;;;5002303;28;20022;-81
2022/04/03 04:23:36;;;;;;;1.73;0.98;;;0.60;65.40;;;;;;5010808;28;20049;-81
2022/04/03 04:26:01;;;;;;;2.23;1.20;;;0.60;65.40;;;;;;4981512;28;20076;-81
2022/04/03 04:28:27;;;;;;;2.00;1.20;;;0.60;65.50;;;;;;4964795;28;20049;-81
2022/04/03 04:30:53;;;;;;;2.67;1.30;;;0.60;65.50;;;;;;4989752;28;20132;-81
2022/04/03 04:33:20;;;;;;;1.95;1.27;;;0.50;65.50;;;;;;4979375;28;20163;-81
2022/04/03 04:35:45;;;;;;;2.10;0.95;;;0.50;65.50;;;;;;4986523;28;20059;-81
2022/04/03 04:38:11;;;;;;;2.03;1.10;;;0.50;65.60;;;;;;4987254;28;20137;-80
2022/04/03 04:40:37;;;;;;;2.08;1.00;;;0.50;65.70;;;;;;5004911;28;20525;-81
2022/04/03 04:43:03;;;;;;;1.80;1.00;;;0.40;65.70;;;;;;4990120;28;20336;-81
2022/04/03 04:45:29;;;;;;;1.67;1.15;;;0.40;65.80;;;;;;4983770;28;20056;-81
2022/04/03 04:48:00;;;;;;;2.23;1.17;;;0.40;65.80;;;;;;4987614;28;20459;-81
2022/04/03 04:50:28;;;;;;;1.88;1.17;;;0.40;65.90;;;;;;4979968;28;20025;-81
2022/04/03 04:52:55;;;;;;;2.85;1.25;;;0.40;65.90;;;;;;5001888;28;20068;-81
2022/04/03 04:55:20;;;;;;;3.58;1.20;;;0.40;65.90;;;;;;4984562;28;20246;-80
2022/04/03 04:57:54;;;;;;;1.90;1.10;;;0.40;65.90;;;;;;4998822;28;20536;-81
2022/04/03 05:00:22;;;;;;;3.25;1.25;;;0.40;66.00;;;;;;4946401;28;20578;-81
2022/04/03 05:02:49;;;;;;;2.03;1.13;;;0.30;65.90;;;;;;4964967;28;20583;-81
2022/04/03 05:05:19;;;;;;;2.65;1.20;;;0.30;65.90;;;;;;5003334;28;20375;-81
2022/04/03 05:07:47;;;;;;;1.63;1.03;;;0.30;66.00;;;;;;4972085;28;20419;-81
2022/04/03 05:10:15;;;;;;;2.15;1.20;;;0.30;66.00;;;;;;4992036;28;20036;-81
2022/04/03 05:12:42;;;;;;;2.58;1.20;;;0.20;66.10;;;;;;4993049;28;20091;-81
2022/04/03 05:15:10;;;;;;;2.10;1.15;;;0.20;66.00;;;;;;4983717;28;20030;-81
2022/04/03 05:17:36;;;;;;;2.08;1.15;;;0.20;66.10;;;;;;4986376;28;20377;-81
2022/04/03 05:20:03;;;;;;;1.93;1.00;;;0.20;66.10;;;;;;5002087;28;20072;-80
2022/04/03 05:22:29;;;;;;;2.58;1.10;;;0.20;66.20;;;;;;4961811;28;20041;-80
2022/04/03 05:24:55;;;;;;;2.17;1.10;;;0.20;66.30;;;;;;4981430;28;20057;-81
2022/04/03 05:27:21;;;;;;;3.07;1.20;;;0.20;66.30;;;;;;4989315;28;20454;-80
2022/04/03 05:29:47;;;;;;;2.10;1.17;;;0.20;66.40;;;;;;4995136;28;20252;-80
2022/04/03 05:32:13;;;;;;;2.40;1.50;;;0.20;66.50;;;;;;4953744;28;20477;-80
2022/04/03 05:34:39;;;;;;;2.00;1.10;;;0.10;66.50;;;;;;4982009;28;20212;-83
2022/04/03 05:37:06;;;;;;;2.10;1.13;;;0.20;66.70;;;;;;4987968;28;20295;-83
2022/04/03 05:39:32;;;;;;;2.22;1.00;;;0.20;66.80;;;;;;4993916;28;20513;-83
2022/04/03 05:41:57;;;;;;;1.40;1.00;;;0.20;66.80;;;;;;4993697;28;20033;-83
2022/04/03 05:44:23;;;;;;;2.27;1.10;;;0.20;66.90;;;;;;4979219;28;20537;-83
2022/04/03 05:46:50;;;;;;;2.58;1.10;;;0.20;67.00;;;;;;4991709;28;20195;-82
2022/04/03 05:49:16;;;;;;;1.73;1.05;;;0.20;67.00;;;;;;4992889;28;20060;-83
2022/04/03 05:51:42;;;;;;;1.58;1.15;;;0.30;67.20;;;;;;4987252;28;20064;-83
2022/04/03 05:54:08;;;;;;;2.70;1.60;;;0.30;67.20;;;;;;4978448;28;20346;-83
2022/04/03 05:56:34;;;;;;;3.30;1.63;;;0.30;67.30;;;;;;4981519;28;20088;-83
2022/04/03 05:59:00;;;;;;;4.10;2.08;;;0.30;67.30;;;;;;4984533;28;20711;-83
2022/04/03 06:01:26;;;;;;;5.03;2.40;;;0.30;67.50;;;;;;4965110;28;20287;-82
2022/04/03 06:03:52;;;;;;;5.27;2.10;;;0.40;67.60;;;;;;4964867;28;20224;-83
2022/04/03 06:06:18;;;;;;;3.47;2.00;;;0.40;67.70;;;;;;4993844;28;20889;-83
2022/04/03 06:08:44;;;;;;;3.22;1.90;;;0.50;68.00;;;;;;4991646;28;20069;-80
2022/04/03 06:11:10;;;;;;;3.70;1.77;;;0.50;68.00;;;;;;4986609;28;20025;-80
2022/04/03 06:13:36;;;;;;;3.07;1.50;;;0.60;68.10;;;;;;4989628;28;20121;-83
2022/04/03 06:16:02;;;;;;;4.40;1.92;;;0.60;68.30;;;;;;5002393;28;20117;-83
2022/04/03 06:18:28;;;;;;;3.67;1.88;;;0.70;68.30;;;;;;4968964;28;20129;-82
2022/04/03 06:20:54;;;;;;;2.90;1.70;;;0.80;68.40;;;;;;4993021;28;20422;-83
2022/04/03 06:23:22;;;;;;;2.58;1.63;;;0.90;68.40;;;;;;4999211;28;20173;-83
2022/04/03 06:25:52;;;;;;;3.23;1.53;;;0.90;68.40;;;;;;4978798;28;20041;-83
2022/04/03 06:28:18;;;;;;;2.95;1.85;;;1.00;68.40;;;;;;4976160;28;20550;-82
2022/04/03 06:30:44;;;;;;;3.10;1.90;;;1.10;68.60;;;;;;4997034;28;20041;-83
2022/04/03 06:33:10;;;;;;;2.50;1.67;;;1.20;68.70;;;;;;4974292;28;20318;-83
2022/04/03 06:35:36;;;;;;;2.67;1.70;;;1.30;68.80;;;;;;4988890;28;20562;-83
2022/04/03 06:38:02;;;;;;;2.88;1.67;;;1.40;69.00;;;;;;4996625;28;20405;-83
2022/04/03 06:40:28;;;;;;;5.73;2.03;;;1.50;69.40;;;;;;4968101;28;20052;-83
2022/04/03 06:42:54;;;;;;;4.20;2.50;;;1.60;69.80;;;;;;4995625;28;20280;-83
2022/04/03 06:45:20;;;;;;;10.55;3.65;;;1.90;70.40;;;;;;5004727;28;20318;-81
2022/04/03 06:47:47;;;;;;;7.40;3.53;;;2.20;71.50;;;;;;4995392;28;20445;-80
2022/04/03 06:50:12;;;;;;;4.13;2.13;;;2.50;72.50;;;;;;4961961;28;20067;-81
2022/04/03 06:52:38;;;;;;;3.87;2.10;;;2.90;73.20;;;;;;4969187;28;20049;-81
2022/04/03 06:55:05;;;;;;;4.28;2.10;;;3.40;73.70;;;;;;4997379;28;20042;-81
2022/04/03 06:57:30;;;;;;;3.67;2.08;;;3.80;74.00;;;;;;4965863;28;20038;-81
2022/04/03 06:59:56;;;;;;;2.80;1.90;;;4.30;74.30;;;;;;4995210;28;20025;-82
2022/04/03 07:02:22;;;;;;;3.38;1.80;;;4.80;74.60;;;;;;4983956;28;20549;-81
2022/04/03 07:04:47;;;;;;;3.03;1.70;;;5.30;74.90;;;;;;4970881;28;20054;-81
2022/04/03 07:07:24;;;;;;;3.22;2.00;;;5.80;75.30;;;;;;4979584;28;20037;-82
2022/04/03 07:09:50;;;;;;;3.15;1.52;;;6.30;75.20;;;;;;4997363;28;20858;-82
2022/04/03 07:12:17;;;;;;;2.70;1.67;;;6.90;75.90;;;;;;4980136;28;20042;-82
2022/04/03 07:14:43;;;;;;;2.35;1.50;;;7.40;75.90;;;;;;4997639;28;20049;-82
2022/04/03 07:17:08;;;;;;;2.22;1.25;;;7.90;76.80;;;;;;4993258;28;20627;-82
2022/04/03 07:19:34;;;;;;;2.23;1.40;;;8.60;76.10;;;;;;4986456;28;20502;-82
2022/04/03 07:22:00;;;;;;;2.25;1.40;;;9.10;75.70;;;;;;4985541;28;20394;-82
2022/04/03 07:24:27;;;;;;;2.90;1.50;;;9.70;75.40;;;;;;5018829;28;20053;-83
2022/04/03 07:26:56;;;;;;;2.13;1.50;;;10.30;74.60;;;;;;4980143;28;20863;-83
2022/04/03 07:29:25;;;;;;;2.72;1.52;;;10.80;74.20;;;;;;4965677;28;24232;-83
2022/04/03 07:31:52;;;;;;;2.17;1.52;;;11.40;74.00;;;;;;4997042;28;20049;-83
2022/04/03 07:34:18;;;;;;;3.20;1.65;;;11.90;73.70;;;;;;4973354;28;20489;-83
2022/04/03 07:36:44;;;;;;;2.45;1.73;;;12.40;73.10;;;;;;4989428;28;20101;-83
2022/04/03 07:39:10;;;;;;;2.30;1.60;;;12.90;72.60;;;;;;4975394;28;20581;-84
2022/04/03 07:41:37;;;;;;;2.65;1.70;;;13.40;72.10;;;;;;4988435;28;20041;-84
2022/04/03 07:44:08;;;;;;;3.15;1.90;;;13.80;71.60;;;;;;4980814;28;20083;-83
2022/04/03 07:46:33;;;;;;;2.80;1.77;;;14.30;70.50;;;;;;4997993;28;20034;-83
2022/04/03 07:48:59;;;;;;;3.07;1.70;;;14.70;71.00;;;;;;4976230;28;20297;-84
2022/04/03 07:51:26;;;;;;;2.78;1.80;;;15.10;69.60;;;;;;4982761;28;20033;-84
2022/04/03 07:53:53;;;;;;;2.27;1.60;;;15.50;69.50;;;;;;5000668;28;20044;-83
2022/04/03 07:56:18;;;;;;;2.10;1.50;;;15.90;68.90;;;;;;4971980;28;20498;-83
2022/04/03 07:58:44;;;;;;;2.60;1.60;;;16.30;68.60;;;;;;4980368;28;20040;-84
2022/04/03 08:01:10;;;;;;;2.20;1.50;;;16.60;69.10;;;;;;4955915;28;20040;-83
2022/04/03 08:03:35;;;;;;;1.40;1.00;;;17.00;67.60;;;;;;5009810;28;20137;-84
2022/04/03 08:06:01;;;;;;;3.63;1.30;;;17.30;67.20;;;;;;4981900;28;20163;-83
2022/04/03 08:08:27;;;;;;;1.70;1.00;;;17.70;67.00;;;;;;5001019;28;20022;-83
2022/04/03 08:10:52;;;;;;;2.20;1.00;;;18.00;66.80;;;;;;4979948;28;20491;-84
2022/04/03 08:13:20;;;;;;;1.53;0.83;;;18.30;66.70;;;;;;4997708;28;20049;-82
2022/04/03 08:15:46;;;;;;;1.40;0.85;;;18.70;66.10;;;;;;4965595;28;20034;-84
2022/04/03 08:18:12;;;;;;;1.35;1.00;;;19.00;65.30;;;;;;4998666;28;20479;-84
2022/04/03 08:20:38;;;;;;;1.30;0.90;;;19.30;64.40;;;;;;4977678;28;20091;-83
2022/04/03 08:23:05;;;;;;;1.60;1.00;;;19.50;64.00;;;;;;4981865;28;20479;-84
2022/04/03 08:25:32;;;;;;;1.83;1.17;;;19.70;64.40;;;;;;4984601;28;20079;-84
2022/04/03 08:27:59;;;;;;;1.38;1.00;;;20.00;64.10;;;;;;4993582;28;20045;-84
2022/04/03 08:30:28;;;;;;;1.42;1.00;;;20.30;64.00;;;;;;4970285;28;20552;-84
2022/04/03 08:32:54;;;;;;;1.42;0.98;;;20.50;62.70;;;;;;4977333;28;20046;-84
2022/04/03 08:35:24;;;;;;;1.77;1.10;;;20.70;61.90;;;;;;5006849;28;20585;-84
2022/04/03 08:37:50;;;;;;;1.58;1.10;;;20.90;61.60;;;;;;4963407;28;20092;-84
2022/04/03 08:40:17;;;;;;;1.23;0.85;;;21.00;60.90;;;;;;4969241;28;20040;-84
2022/04/03 08:42:43;;;;;;;1.20;0.85;;;21.20;61.70;;;;;;5001802;28;20036;-84
2022/04/03 08:45:11;;;;;;;1.30;1.00;;;21.40;61.70;;;;;;5020777;28;20029;-85
2022/04/03 08:47:44;;;;;;;1.55;1.05;;;21.50;59.90;;;;;;4977852;28;20037;-84
2022/04/03 08:50:10;;;;;;;0.80;0.80;;;21.70;57.30;;;;;;4980711;28;20224;-83
2022/04/03 08:52:37;;;;;;;1.95;0.80;;;21.80;60.60;;;;;;4999137;28;20124;-84
2022/04/03 08:55:04;;;;;;;1.02;0.82;;;22.00;61.50;;;;;;4959099;28;20198;-84
2022/04/03 08:57:30;;;;;;;1.27;0.87;;;22.20;61.50;;;;;;5011081;28;21393;-84
2022/04/03 08:59:56;;;;;;;1.60;1.08;;;22.40;61.20;;;;;;4985352;28;20041;-84
2022/04/03 09:02:22;;;;;;;1.42;0.95;;;22.70;60.70;;;;;;4971410;28;20064;-84
2022/04/03 09:04:48;;;;;;;1.17;0.80;;;22.90;59.80;;;;;;4982278;28;20438;-84
2022/04/03 09:07:18;;;;;;;1.40;1.00;;;23.10;59.80;;;;;;4984558;28;20339;-84
2022/04/03 09:09:44;;;;;;;2.25;1.00;;;23.20;56.00;;;;;;4978130;28;20034;-83
2022/04/03 09:12:18;;;;;;;1.38;1.00;;;23.20;57.30;;;;;;4988619;28;20036;-85
2022/04/03 09:14:52;;;;;;;0.90;0.90;;;23.20;54.60;;;;;;4983129;28;20026;-85
2022/04/03 09:17:57;;;;;;;1.13;0.80;;;23.30;55.00;;;;;;4974563;28;20650;-84
2022/04/03 09:20:28;;;;;;;1.30;1.10;;;23.40;50.30;;;;;;4991953;28;20034;-84
2022/04/03 09:22:58;;;;;;;1.58;1.10;;;23.50;54.90;;;;;;4980054;28;20022;-84
2022/04/03 09:25:48;;;;;;;1.45;1.10;;;23.60;55.20;;;;;;4948562;28;20030;-84
2022/04/03 09:28:14;;;;;;;1.88;1.00;;;23.80;53.80;;;;;;4983666;28;20263;-83
2022/04/03 09:30:44;;;;;;;1.30;1.00;;;23.90;56.00;;;;;;4961422;28;20045;-84
2022/04/03 09:33:12;;;;;;;1.30;1.10;;;24.10;54.40;;;;;;4969326;28;20150;-84
2022/04/03 09:36:03;;;;;;;2.25;1.10;;;24.20;55.00;;;;;;4973596;28;20084;-84
2022/04/03 09:38:30;;;;;;;1.65;1.20;;;24.50;47.40;;;;;;4974113;28;20030;-84
2022/04/03 09:40:58;;;;;;;1.37;1.10;;;24.70;54.20;;;;;;4970677;28;20243;-82
2022/04/03 09:43:32;;;;;;;1.48;1.02;;;24.90;53.90;;;;;;4961956;28;20026;-83
2022/04/03 09:46:00;;;;;;;1.40;1.30;;;25.00;51.60;;;;;;4981140;28;20064;-84
2022/04/03 09:48:29;;;;;;;1.73;1.10;;;25.30;52.50;;;;;;4964840;28;20065;-84
2022/04/03 09:51:04;;;;;;;2.53;1.30;;;25.50;53.40;;;;;;4960566;28;20026;-84
2022/04/03 09:53:39;;;;;;;1.37;1.20;;;25.80;50.80;;;;;;5001390;28;20460;-84
2022/04/03 09:56:05;;;;;;;1.95;1.20;;;25.90;48.00;;;;;;4989479;28;20041;-84
2022/04/03 09:58:30;;;;;;;2.13;1.30;;;26.00;51.30;;;;;;4974150;28;20060;-83
2022/04/03 10:00:56;;;;;;;2.23;1.30;;;26.20;50.90;;;;;;4981627;28;20262;-84
2022/04/03 10:03:23;;;;;;;1.42;1.27;;;26.20;49.20;;;;;;4972688;28;20471;-84
2022/04/03 10:05:50;;;;;;;2.03;1.30;;;26.20;48.50;;;;;;4967916;28;20350;-84
2022/04/03 10:08:18;;;;;;;2.43;1.40;;;26.20;48.40;;;;;;5001779;28;20038;-84
2022/04/03 10:10:47;;;;;;;1.48;1.38;;;26.20;47.30;;;;;;4971778;28;21566;-84
2022/04/03 10:13:13;;;;;;;1.73;1.50;;;26.20;47.30;;;;;;4987589;28;20028;-84
2022/04/03 10:15:39;;;;;;;2.00;1.60;;;26.20;48.10;;;;;;4978790;28;20349;-83
2022/04/03 10:18:05;;;;;;;1.70;1.60;;;26.30;48.40;;;;;;4978196;28;20022;-84
2022/04/03 10:20:34;;;;;;;2.10;1.48;;;26.40;47.00;;;;;;4980494;28;20903;-83
2022/04/03 10:23:05;;;;;;;1.40;1.30;;;26.30;45.30;;;;;;4989867;28;20029;-84
2022/04/03 10:25:37;;;;;;;2.17;1.50;;;25.90;42.00;;;;;;4993879;28;20091;-83
2022/04/03 10:28:05;;;;;;;2.38;1.42;;;25.50;41.90;;;;;;4971038;28;20064;-84
2022/04/03 10:30:42;;;;;;;2.20;1.67;;;25.00;42.10;;;;;;4966066;28;20103;-84
2022/04/03 10:33:18;;;;;;;1.58;1.25;;;24.60;39.70;;;;;;4975890;28;20029;-83
2022/04/03 10:35:49;;;;;;;1.60;1.25;;;24.30;40.30;;;;;;4965952;28;20080;-84
2022/04/03 10:38:14;;;;;;;1.45;1.30;;;24.10;42.50;;;;;;5001435;28;21190;-84
2022/04/03 10:40:54;;;;;;;1.50;1.10;;;24.20;45.60;;;;;;5006278;28;20034;-84
2022/04/03 10:43:29;;;;;;;1.35;1.10;;;24.30;46.00;;;;;;4968089;28;21533;-84
2022/04/03 10:45:56;;;;;;;1.30;1.10;;;24.60;44.60;;;;;;4991205;28;20048;-84
2022/04/03 10:48:21;;;;;;;1.00;0.90;;;24.80;46.80;;;;;;4999237;28;20044;-84
2022/04/03 10:50:58;;;;;;;1.23;1.00;;;25.20;47.20;;;;;;4993646;28;20041;-84
2022/04/03 10:53:31;;;;;;;1.38;1.00;;;25.40;41.80;;;;;;5012827;28;20274;-84
2022/04/03 10:55:59;;;;;;;1.98;1.23;;;25.60;44.20;;;;;;4999465;28;20018;-83
2022/04/03 10:58:38;;;;;;;2.05;1.23;;;25.70;44.30;;;;;;4979177;28;20137;-83
2022/04/03 11:01:04;;;;;;;2.40;1.30;;;25.80;40.10;;;;;;4972333;28;20056;-83
2022/04/03 11:03:32;;;;;;;1.30;1.13;;;25.90;44.30;;;;;;5002966;28;21277;-83
2022/04/03 11:06:17;;;;;;;1.10;1.00;;;25.90;42.70;;;;;;4981311;28;20037;-84
2022/04/03 11:08:52;;;;;;;1.10;1.00;;;25.90;42.20;;;;;;5006868;28;20072;-84
2022/04/03 11:11:43;;;;;;;1.05;0.90;;;25.80;41.20;;;;;;4963500;28;20030;-84
2022/04/03 11:14:11;;;;;;;1.47;0.97;;;25.50;37.80;;;;;;4994259;28;20309;-83
2022/04/03 11:16:53;;;;;;;1.60;1.08;;;25.40;41.40;;;;;;4980366;28;20037;-82
2022/04/03 11:19:36;;;;;;;1.58;0.90;;;25.20;37.50;;;;;;4970472;28;20414;-83
2022/04/03 11:22:03;;;;;;;1.10;1.00;;;25.20;37.80;;;;;;4985300;28;20023;-83
2022/04/03 11:24:30;;;;;;;1.23;0.90;;;25.30;42.10;;;;;;4985696;28;20789;-83
2022/04/03 11:26:57;;;;;;;1.07;0.90;;;25.50;42.60;;;;;;5011569;28;20258;-84
2022/04/03 11:29:22;;;;;;;1.33;0.93;;;25.70;43.00;;;;;;4956786;28;25057;-83
2022/04/03 11:31:49;;;;;;;1.00;0.90;;;25.90;42.90;;;;;;4978963;28;20149;-82
2022/04/03 11:34:15;;;;;;;1.33;0.80;;;26.10;42.80;;;;;;4978299;28;20034;-83
2022/04/03 11:36:41;;;;;;;1.00;0.90;;;26.30;42.60;;;;;;4963307;28;20078;-82
2022/04/03 11:39:09;;;;;;;1.60;1.50;;;26.40;42.40;;;;;;4984692;28;20029;-83
2022/04/03 11:41:35;;;;;;;2.03;1.70;;;26.60;40.90;;;;;;4978802;28;20034;-84
2022/04/03 11:44:05;;;;;;;1.60;1.50;;;26.50;39.50;;;;;;4994359;28;20033;-83
2022/04/03 11:46:45;;;;;;;1.70;1.48;;;26.20;36.90;;;;;;4950699;28;20042;-83
2022/04/03 11:49:12;;;;;;;1.90;1.50;;;25.80;34.80;;;;;;4989531;28;20410;-82
2022/04/03 11:51:39;;;;;;;2.70;1.80;;;25.40;36.50;;;;;;4969781;28;20509;-81
2022/04/03 11:54:04;;;;;;;1.85;1.42;;;24.90;36.30;;;;;;4992974;28;20269;-82
2022/04/03 11:56:34;;;;;;;1.83;1.47;;;24.40;36.40;;;;;;4971023;28;20087;-83
2022/04/03 11:59:01;;;;;;;1.60;1.20;;;24.00;36.40;;;;;;4993864;28;20613;-83
2022/04/03 12:01:28;;;;;;;1.40;1.30;;;23.50;36.40;;;;;;4950535;28;20041;-83
2022/04/03 12:04:10;;;;;;;1.60;1.20;;;23.10;36.80;;;;;;4984303;28;20380;-83
2022/04/03 12:06:37;;;;;;;1.40;1.15;;;22.70;34.70;;;;;;4991538;28;20037;-83
2022/04/03 12:09:12;;;;;;;1.58;1.20;;;22.30;36.60;;;;;;4966537;28;20111;-83
2022/04/03 12:11:40;;;;;;;2.03;1.20;;;22.00;35.70;;;;;;5006678;28;20065;-83
2022/04/03 12:14:07;;;;;;;1.10;1.00;;;21.70;36.80;;;;;;4994021;28;20686;-82
2022/04/03 12:16:38;;;;;;;1.30;1.00;;;21.40;37.10;;;;;;4962035;28;20124;-83
2022/04/03 12:19:08;;;;;;;1.30;1.00;;;21.10;37.20;;;;;;4975931;28;20135;-83
2022/04/03 12:21:56;;;;;;;1.30;1.17;;;20.80;36.80;;;;;;4970818;28;20242;-85
2022/04/03 12:24:24;;;;;;;1.30;1.10;;;20.50;35.20;;;;;;5001528;28;20424;-82
2022/04/03 12:27:05;;;;;;;1.58;1.10;;;20.30;38.00;;;;;;5006464;28;20135;-83
2022/04/03 12:29:32;;;;;;;1.40;1.00;;;20.10;37.10;;;;;;4996394;28;20551;-81
2022/04/03 12:32:06;;;;;;;2.05;1.13;;;19.90;38.40;;;;;;4994221;28;20399;-83
2022/04/03 12:34:34;;;;;;;2.25;1.10;;;19.80;38.30;;;;;;4976544;28;20490;-83
2022/04/03 12:37:02;;;;;;;1.73;1.00;;;19.80;39.10;;;;;;4961846;28;20026;-82
2022/04/03 12:39:38;;;;;;;1.77;1.10;;;19.70;39.30;;;;;;5020873;28;20283;-82
2022/04/03 12:42:25;;;;;;;1.00;0.90;;;19.70;39.50;;;;;;5009660;28;20517;-82
2022/04/03 12:45:14;;;;;;;1.10;1.00;;;19.70;37.70;;;;;;4996645;28;20128;-82
2022/04/03 12:47:49;;;;;;;1.20;1.00;;;19.70;39.40;;;;;;4983929;28;20040;-83
2022/04/03 12:50:17;;;;;;;1.40;1.15;;;19.80;40.30;;;;;;4987815;28;20041;-83
2022/04/03 12:52:49;;;;;;;1.92;1.10;;;19.80;40.60;;;;;;4991236;28;20026;-83
2022/04/03 12:55:21;;;;;;;1.73;1.10;;;19.90;40.30;;;;;;4996532;28;20506;-82